Time;durP1;ratioP1;P1;durP2;ratioP2;P2;SDS_P1;SDS_P2;PMS_P1;PMS_P2;Temp;Humidity;BMP_temperature;BMP_pressure;BME280_temperature;BME280_humidity;BME280_pressure;Samples;Min_cycle;Max_cycle;Signal;HPM_P1;HPM_P2
2022/07/19 00:02:12;;;;;;;2.65;1.90;;;;;;;27.24;33.31;100104.47;5040056;28;20048;-43
2022/07/19 00:04:39;;;;;;;2.33;1.80;;;;;;;27.18;33.17;100105.75;5038846;28;20059;-43
2022/07/19 00:07:07;;;;;;;3.28;2.22;;;;;;;27.11;33.42;100105.38;5038114;28;20045;-43
2022/07/19 00:09:35;;;;;;;2.20;1.70;;;;;;;27.07;33.31;100095.91;5038376;28;20072;-47
2022/07/19 00:12:04;;;;;;;3.22;1.75;;;;;;;27.04;33.31;100104.09;5042963;28;20041;-43
2022/07/19 00:14:31;;;;;;;3.28;2.10;;;;;;;27.00;32.95;100102.63;5041113;28;20057;-45
2022/07/19 00:16:58;;;;;;;5.75;2.08;;;;;;;26.97;32.99;100098.38;5043548;28;20104;-43
2022/07/19 00:19:25;;;;;;;4.10;2.47;;;;;;;26.90;33.50;100097.94;5040707;28;20045;-44
2022/07/19 00:21:52;;;;;;;2.55;2.00;;;;;;;26.85;33.83;100100.06;5044081;28;20049;-43
2022/07/19 00:24:18;;;;;;;3.35;1.75;;;;;;;26.80;33.61;100102.19;5041725;28;20107;-45
2022/07/19 00:26:45;;;;;;;3.67;2.28;;;;;;;26.73;33.38;100091.16;5037543;28;20060;-45
2022/07/19 00:29:12;;;;;;;6.30;1.80;;;;;;;26.67;33.84;100092.44;5040812;28;20048;-43
2022/07/19 00:31:38;;;;;;;4.43;1.90;;;;;;;26.62;33.99;100093.72;5041511;28;20373;-45
2022/07/19 00:34:05;;;;;;;3.00;2.13;;;;;;;26.56;33.72;100095.00;5039972;28;20477;-44
2022/07/19 00:36:32;;;;;;;2.78;2.10;;;;;;;26.52;33.95;100093.53;5041205;28;20056;-43
2022/07/19 00:38:58;;;;;;;4.32;2.08;;;;;;;26.46;34.06;100093.94;5041362;28;20045;-45
2022/07/19 00:41:25;;;;;;;3.80;1.80;;;;;;;26.40;34.00;100084.59;5042550;28;20052;-49
2022/07/19 00:43:52;;;;;;;4.65;1.95;;;;;;;26.36;33.86;100083.09;5045233;28;20049;-50
2022/07/19 00:46:21;;;;;;;3.25;1.90;;;;;;;26.33;33.56;100089.47;5041954;28;20045;-49
2022/07/19 00:48:49;;;;;;;3.72;1.80;;;;;;;26.28;33.99;100084.47;5053476;28;20126;-49
2022/07/19 00:51:17;;;;;;;2.80;1.83;;;;;;;26.24;34.31;100082.97;5041924;28;20049;-48
2022/07/19 00:53:45;;;;;;;3.30;1.80;;;;;;;26.18;34.12;100076.25;5042199;28;20132;-47
2022/07/19 00:56:13;;;;;;;4.03;1.88;;;;;;;26.13;34.21;100078.41;5040818;28;20057;-46
2022/07/19 00:58:41;;;;;;;3.75;2.15;;;;;;;26.07;34.38;100076.16;5057327;28;20076;-44
2022/07/19 01:01:09;;;;;;;3.03;1.88;;;;;;;26.00;34.41;100072.22;5038498;28;20053;-43
2022/07/19 01:03:38;;;;;;;5.28;1.85;;;;;;;25.96;34.26;100076.88;5043463;28;20053;-48
2022/07/19 01:06:06;;;;;;;2.80;2.20;;;;;;;25.90;34.44;100072.84;5055034;28;20582;-45
2022/07/19 01:08:32;;;;;;;2.67;1.70;;;;;;;25.89;34.40;100064.97;5042165;28;20049;-43
2022/07/19 01:10:59;;;;;;;3.22;1.70;;;;;;;25.85;34.55;100064.34;5042229;28;20053;-45
2022/07/19 01:13:26;;;;;;;2.72;1.77;;;;;;;25.82;34.76;100072.50;5046591;28;20053;-45
2022/07/19 01:15:55;;;;;;;2.83;1.98;;;;;;;25.79;34.80;100064.75;5043406;28;20557;-44
2022/07/19 01:18:23;;;;;;;3.00;2.40;;;;;;;25.73;35.08;100067.81;5046459;28;20107;-44
2022/07/19 01:20:51;;;;;;;4.38;2.20;;;;;;;25.69;35.74;100066.34;5040407;28;20076;-47
2022/07/19 01:23:17;;;;;;;2.67;2.22;;;;;;;25.62;35.40;100064.06;5043217;28;20382;-45
2022/07/19 01:25:44;;;;;;;3.90;2.13;;;;;;;25.57;35.56;100063.50;5042607;28;20128;-44
2022/07/19 01:28:11;;;;;;;3.92;2.28;;;;;;;25.53;35.68;100051.41;5047396;28;20488;-45
2022/07/19 01:30:37;;;;;;;3.65;2.78;;;;;;;25.50;35.45;100056.91;5044796;28;20060;-43
2022/07/19 01:33:04;;;;;;;3.53;2.25;;;;;;;25.46;35.60;100052.75;5049819;28;20076;-47
2022/07/19 01:35:31;;;;;;;3.67;2.28;;;;;;;25.43;35.78;100051.13;5045031;28;20135;-45
2022/07/19 01:37:58;;;;;;;4.60;2.50;;;;;;;25.39;35.96;100052.28;5044747;28;20507;-45
2022/07/19 01:40:25;;;;;;;4.05;3.10;;;;;;;25.35;36.37;100050.78;5045312;28;20462;-45
2022/07/19 01:42:51;;;;;;;4.95;2.70;;;;;;;25.30;36.68;100048.44;5043901;28;20138;-44
2022/07/19 01:45:20;;;;;;;4.10;2.50;;;;;;;25.25;36.70;100050.53;5045314;28;20071;-44
2022/07/19 01:47:47;;;;;;;4.13;3.05;;;;;;;25.20;37.00;100052.63;5043865;28;20057;-44
2022/07/19 01:50:16;;;;;;;4.22;2.83;;;;;;;25.13;37.00;100042.41;5043774;28;20050;-43
2022/07/19 01:52:43;;;;;;;5.03;2.55;;;;;;;25.08;36.92;100043.66;5045004;28;20045;-44
2022/07/19 01:55:15;;;;;;;3.78;2.65;;;;;;;25.02;37.71;100036.97;5045634;28;20107;-44
2022/07/19 01:57:42;;;;;;;5.60;2.70;;;;;;;24.98;37.77;100046.06;5046074;28;20076;-45
2022/07/19 02:00:09;;;;;;;4.47;2.72;;;;;;;24.92;37.57;100038.50;5043735;28;20060;-48
2022/07/19 02:02:38;;;;;;;4.82;2.72;;;;;;;24.87;37.47;100031.72;5045904;28;20045;-44
2022/07/19 02:05:06;;;;;;;6.38;3.78;;;;;;;24.83;37.67;100032.81;5045478;28;20045;-44
2022/07/19 02:07:36;;;;;;;4.63;2.22;;;;;;;24.80;37.38;100027.72;5047511;28;20045;-44
2022/07/19 02:10:04;;;;;;;3.25;2.20;;;;;;;24.78;37.50;100029.59;5046589;28;20044;-44
2022/07/19 02:12:31;;;;;;;5.82;2.63;;;;;;;24.74;37.71;100021.00;5043751;28;20476;-43
2022/07/19 02:14:57;;;;;;;3.63;2.75;;;;;;;24.71;37.87;100020.34;5049054;28;20447;-46
2022/07/19 02:17:24;;;;;;;4.63;2.75;;;;;;;24.68;37.95;100020.56;5045847;28;20065;-42
2022/07/19 02:19:51;;;;;;;3.95;2.83;;;;;;;24.63;37.44;100019.00;5045151;28;20052;-44
2022/07/19 02:22:17;;;;;;;3.28;2.97;;;;;;;24.62;37.48;100012.03;5040447;28;20049;-45
2022/07/19 02:24:44;;;;;;;3.38;2.60;;;;;;;24.59;37.27;100006.91;5043701;28;20053;-46
2022/07/19 02:27:11;;;;;;;4.88;2.25;;;;;;;24.58;37.91;100010.53;5044518;28;20049;-44
2022/07/19 02:29:38;;;;;;;4.57;2.33;;;;;;;24.57;37.78;100010.59;5047208;28;20432;-48
2022/07/19 02:32:06;;;;;;;6.88;2.47;;;;;;;24.55;38.05;100005.41;5040889;28;20102;-44
2022/07/19 02:34:33;;;;;;;4.45;2.85;;;;;;;24.50;37.70;100004.84;5045154;28;20114;-46
2022/07/19 02:37:00;;;;;;;7.40;2.92;;;;;;;24.46;37.53;99998.06;5040534;28;20703;-43
2022/07/19 02:39:27;;;;;;;3.95;2.35;;;;;;;24.43;38.21;100006.19;5043964;28;20048;-48
2022/07/19 02:41:54;;;;;;;2.75;2.45;;;;;;;24.39;38.22;100000.25;5044269;28;20053;-47
2022/07/19 02:44:20;;;;;;;3.30;2.42;;;;;;;24.36;37.84;99996.00;5043195;28;20049;-46
2022/07/19 02:46:47;;;;;;;4.00;3.08;;;;;;;24.34;37.99;100008.44;5046331;28;20053;-48
2022/07/19 02:49:14;;;;;;;3.88;2.47;;;;;;;24.31;37.54;99998.03;5059103;28;20056;-48
2022/07/19 02:51:41;;;;;;;4.22;2.92;;;;;;;24.29;37.94;99989.38;5045220;28;20049;-43
2022/07/19 02:54:07;;;;;;;3.03;2.63;;;;;;;24.28;37.90;99992.94;5045254;28;20050;-45
2022/07/19 02:56:36;;;;;;;3.63;3.00;;;;;;;24.25;37.78;99995.78;5045477;28;20053;-46
2022/07/19 02:59:05;;;;;;;5.50;2.42;;;;;;;24.23;37.63;99989.72;5046122;28;20056;-46
2022/07/19 03:01:31;;;;;;;4.20;3.05;;;;;;;24.21;37.82;99986.34;5055093;28;20075;-48
2022/07/19 03:03:59;;;;;;;5.05;2.85;;;;;;;24.17;37.71;99980.38;5044146;28;20083;-44
2022/07/19 03:06:27;;;;;;;4.68;2.38;;;;;;;24.16;38.38;99983.09;5040737;28;20099;-45
2022/07/19 03:08:53;;;;;;;5.13;2.88;;;;;;;24.12;38.17;99977.16;5045801;28;20140;-46
2022/07/19 03:11:20;;;;;;;3.72;2.70;;;;;;;24.09;37.84;99982.59;5041444;28;20136;-44
2022/07/19 03:13:47;;;;;;;4.35;2.40;;;;;;;24.07;37.99;99973.91;5043699;28;20044;-44
2022/07/19 03:16:14;;;;;;;4.05;2.60;;;;;;;24.04;38.03;99969.66;5044078;28;20048;-48
2022/07/19 03:18:41;;;;;;;5.85;3.30;;;;;;;24.00;38.46;99962.84;5041701;28;20043;-45
2022/07/19 03:21:07;;;;;;;5.95;3.28;;;;;;;23.96;38.43;99966.63;5046140;28;20053;-43
2022/07/19 03:23:36;;;;;;;3.55;2.80;;;;;;;23.94;38.76;99963.25;5046382;28;20075;-42
2022/07/19 03:26:04;;;;;;;3.60;3.13;;;;;;;23.88;38.70;99961.81;5041360;28;20496;-42
2022/07/19 03:28:31;;;;;;;3.00;2.60;;;;;;;23.83;38.72;99956.78;5043442;28;20106;-44
2022/07/19 03:30:57;;;;;;;4.40;2.95;;;;;;;23.78;38.97;99950.94;5039738;28;20103;-43
2022/07/19 03:33:24;;;;;;;4.50;2.42;;;;;;;23.75;39.14;99953.75;5059480;28;20092;-42
2022/07/19 03:35:51;;;;;;;4.10;2.67;;;;;;;23.71;38.61;99954.88;5041202;28;20053;-43
2022/07/19 03:38:17;;;;;;;5.10;3.58;;;;;;;23.67;39.11;99953.38;5043300;28;20098;-42
2022/07/19 03:40:47;;;;;;;5.18;3.05;;;;;;;23.64;39.25;99961.47;5043536;28;20045;-42
2022/07/19 03:43:16;;;;;;;5.22;3.17;;;;;;;23.58;39.10;99952.94;5040025;28;20041;-43
2022/07/19 03:45:44;;;;;;;5.65;3.03;;;;;;;23.55;38.70;99950.50;5039669;28;20099;-43
2022/07/19 03:48:11;;;;;;;5.15;2.70;;;;;;;23.53;39.56;99949.75;5041766;28;20049;-42
2022/07/19 03:50:38;;;;;;;4.95;3.15;;;;;;;23.51;39.27;99941.06;5045273;28;20045;-43
2022/07/19 03:53:05;;;;;;;4.78;2.80;;;;;;;23.48;39.92;99947.34;5046048;28;20041;-43
2022/07/19 03:55:32;;;;;;;3.65;2.80;;;;;;;23.46;39.83;99935.19;5046020;28;20053;-43
2022/07/19 03:57:58;;;;;;;7.63;3.42;;;;;;;23.44;39.28;99932.63;5047316;28;20442;-43
2022/07/19 04:00:25;;;;;;;4.57;3.28;;;;;;;23.43;39.37;99930.94;5045697;28;20052;-43
2022/07/19 04:02:52;;;;;;;5.03;2.83;;;;;;;23.43;39.54;99932.72;5043758;28;20476;-42
2022/07/19 04:05:19;;;;;;;5.32;3.45;;;;;;;23.39;40.05;99931.19;5039045;28;20132;-43
2022/07/19 04:07:46;;;;;;;4.20;2.72;;;;;;;23.36;40.42;99935.72;5043276;28;20056;-46
2022/07/19 04:10:12;;;;;;;7.53;3.10;;;;;;;23.33;40.11;99927.09;5043740;28;20041;-43
2022/07/19 04:12:39;;;;;;;3.95;2.85;;;;;;;23.30;40.27;99936.03;5048745;28;20048;-44
2022/07/19 04:15:07;;;;;;;3.70;3.15;;;;;;;23.28;40.42;99929.16;5045785;28;20048;-45
2022/07/19 04:17:33;;;;;;;4.30;2.70;;;;;;;23.24;40.54;99928.50;5040510;28;20082;-42
2022/07/19 04:20:00;;;;;;;3.83;2.70;;;;;;;23.20;40.58;99924.34;5044265;28;20049;-42
2022/07/19 04:22:27;;;;;;;5.63;3.15;;;;;;;23.18;39.71;99919.13;5042373;28;20045;-42
2022/07/19 04:24:54;;;;;;;6.55;3.45;;;;;;;23.18;40.58;99918.28;5042632;28;22009;-44
2022/07/19 04:27:21;;;;;;;5.35;2.90;;;;;;;23.19;40.23;99917.31;5044362;28;20478;-46
2022/07/19 04:29:48;;;;;;;8.25;3.10;;;;;;;23.18;39.85;99916.50;5045530;28;20124;-43
2022/07/19 04:32:15;;;;;;;4.63;2.97;;;;;;;23.16;39.92;99921.00;5045272;28;20045;-45
2022/07/19 04:34:46;;;;;;;5.32;3.20;;;;;;;23.14;40.69;99911.47;5042546;28;20107;-43
2022/07/19 04:37:13;;;;;;;5.18;3.70;;;;;;;23.16;40.41;99912.22;5040889;28;20144;-43
2022/07/19 04:39:39;;;;;;;5.10;3.25;;;;;;;23.16;40.95;99912.22;5042897;28;20130;-43
2022/07/19 04:42:06;;;;;;;6.18;2.88;;;;;;;23.17;41.14;99900.72;5037905;28;20056;-49
2022/07/19 04:44:33;;;;;;;4.03;2.90;;;;;;;23.18;40.77;99907.72;5041874;28;20504;-43
2022/07/19 04:47:00;;;;;;;4.50;2.90;;;;;;;23.18;40.93;99907.72;5039465;28;20072;-47
2022/07/19 04:49:27;;;;;;;5.03;3.10;;;;;;;23.17;40.06;99911.28;5041458;28;20401;-47
2022/07/19 04:51:54;;;;;;;4.20;3.00;;;;;;;23.18;40.64;99913.00;5042872;28;20053;-46
2022/07/19 04:54:20;;;;;;;8.23;2.88;;;;;;;23.19;40.19;99904.13;5044085;28;20102;-47
2022/07/19 04:56:47;;;;;;;4.80;2.85;;;;;;;23.22;40.85;99906.59;5041702;28;20418;-43
2022/07/19 04:59:14;;;;;;;7.05;3.35;;;;;;;23.23;40.34;99900.34;5041238;28;20048;-44
2022/07/19 05:01:40;;;;;;;5.00;3.10;;;;;;;23.26;41.06;99900.19;5042527;28;20098;-46
2022/07/19 05:04:11;;;;;;;4.40;3.60;;;;;;;23.30;40.29;99890.31;5042673;28;20503;-43
2022/07/19 05:06:37;;;;;;;5.78;3.25;;;;;;;23.33;40.46;99896.25;5040366;28;20719;-47
2022/07/19 05:09:04;;;;;;;4.47;2.50;;;;;;;23.36;40.75;99895.22;5039765;28;20045;-46
2022/07/19 05:11:31;;;;;;;4.85;3.22;;;;;;;23.42;39.83;99894.03;5040395;28;20044;-45
2022/07/19 05:13:58;;;;;;;3.60;2.83;;;;;;;23.47;39.84;99891.97;5042189;28;20037;-45
2022/07/19 05:16:24;;;;;;;4.40;2.60;;;;;;;23.53;40.53;99886.31;5042076;28;20049;-45
2022/07/19 05:18:51;;;;;;;3.72;2.83;;;;;;;23.58;39.86;99888.69;5043822;28;20053;-47
2022/07/19 05:21:18;;;;;;;3.67;2.60;;;;;;;23.64;39.78;99892.75;5044588;28;20099;-48
2022/07/19 05:23:45;;;;;;;4.88;2.60;;;;;;;23.67;40.93;99882.00;5040540;28;20053;-43
2022/07/19 05:26:11;;;;;;;4.93;3.00;;;;;;;23.71;40.86;99883.50;5041993;28;20496;-46
2022/07/19 05:28:38;;;;;;;4.03;2.80;;;;;;;23.79;40.21;99880.38;5039496;28;20079;-50
2022/07/19 05:31:05;;;;;;;4.65;2.80;;;;;;;23.90;40.67;99877.94;5043372;28;20052;-45
2022/07/19 05:33:32;;;;;;;5.68;3.17;;;;;;;24.00;40.98;99872.91;5040690;28;20049;-49
2022/07/19 05:35:59;;;;;;;11.05;4.38;;;;;;;24.11;40.47;99875.78;5041095;28;20049;-42
2022/07/19 05:38:25;;;;;;;3.97;3.05;;;;;;;24.24;40.70;99869.72;5041220;28;20627;-43
2022/07/19 05:40:52;;;;;;;5.47;3.22;;;;;;;24.35;40.19;99872.53;5041045;28;20119;-46
2022/07/19 05:43:19;;;;;;;4.90;2.90;;;;;;;24.44;40.14;99873.75;5038547;28;20041;-43
2022/07/19 05:45:45;;;;;;;6.07;3.25;;;;;;;24.56;40.49;99872.13;5040596;28;20049;-42
2022/07/19 05:48:12;;;;;;;4.57;2.53;;;;;;;24.67;41.11;99870.56;5041643;28;20060;-44
2022/07/19 05:50:39;;;;;;;4.15;2.67;;;;;;;24.78;40.25;99865.41;5041680;28;20110;-43
2022/07/19 05:53:05;;;;;;;5.45;2.70;;;;;;;24.87;40.70;99864.84;5036723;28;20102;-43
2022/07/19 05:55:32;;;;;;;4.43;2.90;;;;;;;24.98;40.78;99874.72;5044252;28;20056;-45
2022/07/19 05:57:59;;;;;;;6.78;3.10;;;;;;;25.10;40.07;99864.25;5041735;28;20378;-44
2022/07/19 06:00:25;;;;;;;4.32;3.30;;;;;;;25.19;40.35;99862.81;5041337;28;20543;-43
2022/07/19 06:02:52;;;;;;;4.50;2.83;;;;;;;25.32;40.72;99865.47;5040724;28;20520;-44
2022/07/19 06:05:19;;;;;;;4.32;2.88;;;;;;;25.44;40.97;99863.78;5041404;28;20111;-44
2022/07/19 06:07:45;;;;;;;4.65;2.53;;;;;;;25.57;40.84;99864.63;5040759;28;20045;-43
2022/07/19 06:10:12;;;;;;;3.70;3.20;;;;;;;25.72;40.88;99867.19;5047489;28;20056;-45
2022/07/19 06:12:38;;;;;;;6.35;2.80;;;;;;;25.86;40.74;99864.44;5046663;28;20122;-45
2022/07/19 06:15:05;;;;;;;4.05;2.65;;;;;;;26.01;40.75;99866.97;5047727;28;20049;-43
2022/07/19 06:17:34;;;;;;;12.20;3.03;;;;;;;26.14;40.47;99857.16;5046695;28;20610;-44
2022/07/19 06:20:01;;;;;;;5.50;2.97;;;;;;;26.31;40.34;99857.81;5048600;28;20647;-46
2022/07/19 06:22:31;;;;;;;4.95;2.33;;;;;;;26.49;40.47;99854.75;5046681;28;20048;-44
2022/07/19 06:24:58;;;;;;;5.50;2.97;;;;;;;26.66;39.99;99856.16;5046539;28;20500;-43
2022/07/19 06:27:25;;;;;;;5.38;2.70;;;;;;;26.85;40.02;99866.25;5059288;28;20511;-45
2022/07/19 06:29:51;;;;;;;6.75;3.03;;;;;;;27.03;40.24;99857.91;5034991;28;20068;-47
2022/07/19 06:32:18;;;;;;;6.85;2.60;;;;;;;27.23;39.77;99860.88;5043005;28;20610;-47
2022/07/19 06:34:45;;;;;;;5.18;2.72;;;;;;;27.43;39.23;99870.81;5045100;28;20535;-44
2022/07/19 06:37:11;;;;;;;6.88;2.78;;;;;;;27.63;38.20;99865.81;5046590;28;20068;-44
2022/07/19 06:39:38;;;;;;;5.40;3.55;;;;;;;27.82;39.06;99862.53;5043149;28;20644;-45
2022/07/19 06:42:04;;;;;;;5.78;3.70;;;;;;;28.00;38.60;99861.22;5038928;28;20483;-46
2022/07/19 06:44:31;;;;;;;9.27;3.60;;;;;;;28.19;38.03;99864.09;5039876;28;20477;-46
2022/07/19 06:46:58;;;;;;;3.33;2.40;;;;;;;28.44;38.34;99858.63;5044012;28;20049;-43
2022/07/19 06:49:24;;;;;;;7.38;3.25;;;;;;;28.70;39.35;99864.47;5040596;28;20061;-45
2022/07/19 06:51:51;;;;;;;5.72;3.15;;;;;;;28.96;39.50;99861.50;5037945;28;20567;-44
2022/07/19 06:54:18;;;;;;;6.63;2.70;;;;;;;29.21;38.82;99862.06;5042521;28;20551;-43
2022/07/19 06:56:44;;;;;;;5.47;3.13;;;;;;;29.46;38.28;99867.16;5048717;28;20045;-44
2022/07/19 06:59:11;;;;;;;11.10;3.13;;;;;;;29.74;38.27;99859.44;5047193;28;20453;-45
2022/07/19 07:01:37;;;;;;;8.20;2.95;;;;;;;30.04;37.90;99863.06;5045886;28;20049;-43
2022/07/19 07:04:05;;;;;;;6.82;2.95;;;;;;;30.35;36.33;99854.16;5045225;28;20065;-45
2022/07/19 07:06:32;;;;;;;5.15;2.67;;;;;;;30.64;36.57;99856.91;5040502;28;20099;-43
2022/07/19 07:08:59;;;;;;;6.85;3.40;;;;;;;30.98;37.03;99861.00;5042578;28;20060;-45
2022/07/19 07:11:26;;;;;;;6.57;2.45;;;;;;;31.34;36.02;99848.84;5045200;28;20129;-43
2022/07/19 07:13:52;;;;;;;6.97;2.60;;;;;;;31.64;35.76;99849.63;5043611;28;20045;-43
2022/07/19 07:16:19;;;;;;;6.30;3.28;;;;;;;31.93;34.98;99844.16;5043409;28;20432;-44
2022/07/19 07:18:46;;;;;;;7.13;3.67;;;;;;;32.18;34.20;99846.25;5044116;28;20417;-44
2022/07/19 07:21:13;;;;;;;5.82;3.03;;;;;;;32.41;33.84;99835.94;5039169;28;20052;-46
2022/07/19 07:23:40;;;;;;;4.80;2.40;;;;;;;32.67;32.92;99842.41;5035549;28;20045;-45
2022/07/19 07:26:06;;;;;;;4.45;3.20;;;;;;;32.88;32.82;99839.41;5042771;28;20049;-44
2022/07/19 07:28:33;;;;;;;4.80;2.67;;;;;;;33.06;31.47;99834.03;5044954;28;20048;-45
2022/07/19 07:31:00;;;;;;;6.80;2.40;;;;;;;33.19;31.11;99838.13;5042559;28;20056;-45
2022/07/19 07:33:27;;;;;;;5.00;2.38;;;;;;;33.34;30.94;99831.19;5037754;28;20429;-45
2022/07/19 07:35:54;;;;;;;4.57;3.15;;;;;;;33.52;31.22;99840.16;5038368;28;20694;-43
2022/07/19 07:38:21;;;;;;;6.45;2.90;;;;;;;33.70;30.31;99834.78;5042173;28;20060;-43
2022/07/19 07:40:47;;;;;;;8.13;2.80;;;;;;;33.90;31.05;99834.50;5042023;28;20057;-43
2022/07/19 07:43:14;;;;;;;7.47;3.40;;;;;;;34.17;30.37;99829.91;5037691;28;20487;-46
2022/07/19 07:45:42;;;;;;;5.85;2.83;;;;;;;34.40;30.46;99826.56;5034741;28;20057;-43
2022/07/19 07:48:09;;;;;;;3.92;1.95;;;;;;;34.53;29.51;99829.63;5039615;28;20086;-44
2022/07/19 07:50:35;;;;;;;6.72;2.65;;;;;;;34.67;29.53;99820.06;5040487;28;20049;-43
2022/07/19 07:53:02;;;;;;;4.50;2.60;;;;;;;34.87;29.71;99817.88;5040151;28;20471;-45
2022/07/19 07:55:29;;;;;;;3.38;2.20;;;;;;;34.99;29.10;99814.84;5039694;28;20041;-44
2022/07/19 07:57:56;;;;;;;5.35;2.53;;;;;;;35.12;28.88;99822.41;5039193;28;20053;-44
2022/07/19 08:00:23;;;;;;;7.25;2.63;;;;;;;35.19;28.63;99819.88;5040252;28;20056;-43
2022/07/19 08:02:50;;;;;;;5.40;2.67;;;;;;;35.27;27.99;99830.63;5042334;28;20885;-45
2022/07/19 08:05:21;;;;;;;4.97;2.70;;;;;;;35.37;28.60;99819.66;5040064;28;20051;-42
2022/07/19 08:07:48;;;;;;;7.35;2.55;;;;;;;35.46;27.37;99809.72;5035481;28;20639;-44
2022/07/19 08:10:19;;;;;;;5.13;2.25;;;;;;;35.55;26.56;99814.03;5038370;28;20469;-50
2022/07/19 08:12:45;;;;;;;4.30;2.40;;;;;;;35.59;27.03;99812.69;5038017;28;20041;-45
2022/07/19 08:15:12;;;;;;;4.90;2.03;;;;;;;35.62;26.54;99815.03;5038112;28;20053;-46
2022/07/19 08:17:39;;;;;;;9.98;2.45;;;;;;;35.62;26.92;99812.34;5035565;28;20094;-45
2022/07/19 08:20:06;;;;;;;10.15;2.10;;;;;;;35.70;26.08;99798.03;5039960;28;20041;-48
2022/07/19 08:22:33;;;;;;;5.68;2.17;;;;;;;35.72;26.20;99800.53;5037986;28;20189;-43
2022/07/19 08:25:00;;;;;;;6.32;2.28;;;;;;;35.72;25.59;99797.84;5037565;28;20045;-44
2022/07/19 08:27:26;;;;;;;4.72;2.10;;;;;;;35.62;25.80;99801.56;5040549;28;20053;-49
2022/07/19 08:29:53;;;;;;;6.22;2.15;;;;;;;35.64;25.84;99796.00;5035836;28;20048;-48
2022/07/19 08:32:20;;;;;;;7.38;1.83;;;;;;;35.79;25.82;99796.13;5037366;28;20189;-44
2022/07/19 08:34:46;;;;;;;3.35;2.47;;;;;;;35.89;26.24;99791.38;5036979;28;20052;-45
2022/07/19 08:37:13;;;;;;;10.07;2.28;;;;;;;36.01;25.54;99799.03;5040486;28;20551;-45
2022/07/19 08:39:40;;;;;;;6.07;2.45;;;;;;;36.07;25.74;99794.78;5037103;28;21732;-44
2022/07/19 08:42:07;;;;;;;7.20;2.88;;;;;;;36.18;25.92;99788.19;5042775;28;20056;-48
2022/07/19 08:44:36;;;;;;;9.55;2.28;;;;;;;36.27;25.35;99787.13;5041987;28;20049;-48
2022/07/19 08:47:03;;;;;;;4.40;2.30;;;;;;;36.32;25.27;99790.09;5044582;28;20079;-46
2022/07/19 08:49:31;;;;;;;6.85;2.45;;;;;;;36.37;25.38;99784.19;5037552;28;20571;-47
2022/07/19 08:51:58;;;;;;;9.07;2.67;;;;;;;36.42;24.84;99778.22;5052928;28;20049;-46
2022/07/19 08:54:26;;;;;;;7.43;2.78;;;;;;;36.55;24.86;99777.63;5038181;28;20103;-51
2022/07/19 08:59:47;;;;;;;5.57;2.40;;;;;;;36.53;25.04;99769.69;5036012;28;20436;-43
2022/07/19 09:02:14;;;;;;;4.95;2.28;;;;;;;36.61;25.27;99772.31;5034885;28;20052;-46
2022/07/19 09:04:41;;;;;;;6.53;2.40;;;;;;;36.69;25.05;99762.50;5037054;28;20053;-46
2022/07/19 09:07:08;;;;;;;6.30;2.35;;;;;;;36.76;25.06;99758.06;5037869;28;20091;-47
2022/07/19 09:09:36;;;;;;;12.20;2.45;;;;;;;36.88;24.98;99756.59;5043276;28;20052;-46
2022/07/19 09:12:04;;;;;;;;;;;;;;;36.96;24.93;99744.03;5035800;28;20159;-44
2022/07/19 09:14:35;;;;;;;7.57;2.90;;;;;;;37.20;23.89;99752.91;5032708;28;19925;-47
2022/07/19 09:17:06;;;;;;;5.75;2.10;;;;;;;37.22;23.38;99745.47;5037934;28;20053;-49
2022/07/19 09:19:42;;;;;;;5.82;2.10;;;;;;;37.27;23.54;99743.03;5036881;28;20071;-47
2022/07/19 09:22:12;;;;;;;6.75;2.72;;;;;;;37.40;23.60;99742.38;5036496;28;20069;-51
2022/07/19 09:24:43;;;;;;;5.63;2.22;;;;;;;37.51;23.57;99732.94;5039952;28;20045;-46
2022/07/19 09:27:12;;;;;;;11.45;3.53;;;;;;;37.65;23.12;99734.78;5041178;28;20052;-47
2022/07/19 09:29:40;;;;;;;;;;;;;;;37.50;22.67;99736.66;5040433;28;20749;-47
2022/07/19 09:35:02;;;;;;;5.25;3.47;;;;;;;37.63;22.03;99731.44;5054734;28;20408;-46
2022/07/19 09:37:32;;;;;;;6.57;4.15;;;;;;;37.79;22.87;99740.34;5038126;28;20053;-49
2022/07/19 09:40:02;;;;;;;7.20;4.60;;;;;;;37.96;22.56;99746.34;5039626;28;20145;-46
2022/07/19 09:42:45;;;;;;;9.57;4.28;;;;;;;38.09;22.72;99734.81;5038106;28;20099;-47
2022/07/19 09:45:14;;;;;;;11.00;4.25;;;;;;;38.14;22.19;99732.41;5036437;28;20045;-49
2022/07/19 09:47:44;;;;;;;9.02;4.00;;;;;;;38.10;21.82;99728.41;5033381;28;20068;-46
2022/07/19 09:50:16;;;;;;;8.95;3.80;;;;;;;38.04;21.26;99711.09;5035474;28;20091;-49
2022/07/19 09:52:45;;;;;;;6.60;3.70;;;;;;;38.09;21.20;99720.47;5037748;28;20163;-46
2022/07/19 09:55:15;;;;;;;9.88;4.30;;;;;;;38.13;21.27;99716.38;5038883;28;20076;-49
2022/07/19 09:57:44;;;;;;;9.52;3.72;;;;;;;38.24;21.85;99731.25;5037488;28;20543;-51
2022/07/19 10:00:13;;;;;;;9.18;4.68;;;;;;;38.28;21.53;99710.88;5036419;28;20045;-50
2022/07/19 10:02:41;;;;;;;;;;;;;;;38.27;21.45;99714.63;5034331;28;20661;-49
2022/07/19 10:05:10;;;;;;;9.05;4.35;;;;;;;38.50;22.00;99714.41;5036411;28;19920;-49
2022/07/19 10:07:37;;;;;;;6.45;4.22;;;;;;;38.63;21.35;99702.84;5037749;28;20064;-45
2022/07/19 10:10:07;;;;;;;6.80;3.42;;;;;;;38.70;21.68;99702.91;5034360;28;20049;-51
2022/07/19 10:12:37;;;;;;;7.18;5.25;;;;;;;38.80;21.73;99694.44;5038971;28;20045;-51
2022/07/19 10:15:05;;;;;;;6.75;4.65;;;;;;;38.95;21.40;99689.72;5034697;28;20053;-47
2022/07/19 10:17:47;;;;;;;7.53;3.83;;;;;;;39.10;21.47;99696.88;5030668;28;20053;-48
2022/07/19 10:20:18;;;;;;;9.43;4.30;;;;;;;39.13;20.92;99691.06;5013933;28;20739;-50
2022/07/19 10:22:45;;;;;;;10.00;4.70;;;;;;;39.05;20.88;99688.50;5010713;28;20063;-47
2022/07/19 10:25:15;;;;;;;11.40;5.18;;;;;;;39.08;21.13;99683.59;5014518;28;20042;-49
2022/07/19 10:27:45;;;;;;;9.65;4.10;;;;;;;39.17;21.33;99686.94;5012502;28;20041;-52
2022/07/19 10:32:50;;;;;;;9.23;4.25;;;;;;;39.16;21.00;99679.84;5045774;27;20395;-46
2022/07/19 10:35:28;;;;;;;10.30;4.18;;;;;;;39.27;21.33;99686.53;5000348;28;20046;-45
2022/07/19 10:40:51;;;;;;;9.07;3.60;;;;;;;39.27;20.29;99675.72;5042038;28;20400;-47
2022/07/19 10:43:21;;;;;;;12.20;3.33;;;;;;;39.36;20.78;99679.06;5019525;28;20482;-47
2022/07/19 10:48:49;;;;;;;14.43;3.58;;;;;;;39.51;20.85;99676.19;5027003;28;20408;-46
2022/07/19 10:51:34;;;;;;;12.63;3.90;;;;;;;39.42;20.71;99662.03;5047658;28;20481;-49
2022/07/19 10:56:42;;;;;;;9.02;4.57;;;;;;;39.56;20.26;99662.06;5040491;28;20394;-46
2022/07/19 10:59:32;;;;;;;8.73;3.83;;;;;;;39.62;21.01;99645.00;5027038;28;20103;-47
2022/07/19 11:02:01;;;;;;;8.00;4.32;;;;;;;39.75;20.66;99646.91;5027529;28;20050;-47
2022/07/19 11:04:49;;;;;;;9.75;3.70;;;;;;;39.88;20.71;99643.34;5050830;28;20131;-45
2022/07/19 11:07:19;;;;;;;12.10;4.50;;;;;;;39.95;20.14;99651.50;5015279;28;20072;-47
2022/07/19 11:12:31;;;;;;;12.57;6.57;;;;;;;40.03;20.60;99661.31;5016321;28;20395;-48
2022/07/19 11:15:00;;;;;;;9.02;4.80;;;;;;;40.16;20.77;99655.91;4981164;28;20682;-46
2022/07/19 11:20:33;;;;;;;11.25;5.07;;;;;;;40.61;19.32;99657.09;5027778;27;20388;-44
2022/07/19 11:23:03;;;;;;;9.18;4.60;;;;;;;40.43;19.16;99664.00;5002507;28;20046;-45
2022/07/19 11:25:34;;;;;;;14.43;4.47;;;;;;;40.43;19.72;99655.88;4992510;28;20054;-49
2022/07/19 11:28:00;;;;;;;11.85;4.57;;;;;;;40.47;19.23;99662.56;5025722;28;20054;-48
2022/07/19 11:30:30;;;;;;;10.05;3.67;;;;;;;40.50;19.21;99649.59;4996066;28;20137;-44
2022/07/19 11:33:00;;;;;;;5.00;3.97;;;;;;;40.51;19.74;99648.59;4999357;28;20057;-47
2022/07/19 11:35:27;;;;;;;13.93;5.53;;;;;;;40.61;19.40;99635.38;4994456;28;20108;-47
2022/07/19 11:37:56;;;;;;;9.80;5.15;;;;;;;40.56;19.19;99644.19;4993505;28;20157;-48
2022/07/19 11:40:25;;;;;;;11.48;5.38;;;;;;;40.48;19.37;99645.22;4990553;28;20138;-50
2022/07/19 11:42:52;;;;;;;16.80;6.30;;;;;;;40.46;18.81;99639.16;4995238;28;20054;-48
2022/07/19 11:45:49;;;;;;;13.20;6.85;;;;;;;40.44;19.20;99637.72;4992264;28;20078;-49
2022/07/19 11:48:27;;;;;;;9.80;6.47;;;;;;;40.50;19.21;99628.75;4992329;28;20050;-45
2022/07/19 11:50:59;;;;;;;8.35;4.63;;;;;;;40.54;19.65;99623.72;4988340;28;20055;-46
2022/07/19 11:53:26;;;;;;;8.65;4.60;;;;;;;40.58;19.19;99624.94;4996480;28;20050;-49
2022/07/19 11:55:52;;;;;;;11.60;4.53;;;;;;;40.69;19.20;99613.44;4993480;28;20053;-47
2022/07/19 11:58:20;;;;;;;12.32;5.30;;;;;;;40.84;19.37;99612.34;4994650;28;20046;-48